• Join FlightAware (Why Join?)
  • Login
  • US Flag 
07:07AM EDT


 

Airport Tracker/Info


-or-


 

Live Flight TrackerFlight Track Log ✈ JBU917 ✈ 02-Jul-2013 ✈ KBOS - KJFK

Flight Track Log - Related Links

Times and Time Zones

All times are in EDT time to prevent confusion due to time zone crossing. See the JBU917 flight status page for this flight to view local times or setup timezone preferences in your user account.

Time Position Orientation Groundspeed Altitude Reporting Facility
EDT Latitude Longitude Course Direction KTS MPH feet Rate Location/Type
05:59AM 42.3500 -70.9833 160° South 158 182 900  Level KA90
06:01AM 42.3167 -70.9000 118° Southeast 230 265 3,100 2,280 Climbing KA90
06:02AM 42.4004 -70.7337 144° Southeast  Level FlightAware Approximate
06:02AM 42.3333 -70.7833 79° East 294 338 6,600  Level KA90
06:03AM 42.3153 -70.6961 164° South  Level FlightAware Approximate
06:03AM 42.2803 -70.6750 123° Southeast 323 372 10,000  Level Boston Center
06:04AM 42.2316 -70.6491 160° South  Level FlightAware Approximate
06:04AM 42.1986 -70.6408 163° South 280 322 11,600  Level Boston Center
06:05AM 42.1459 -70.6062 160° South  Level FlightAware Approximate
06:05AM 42.1131 -70.6322 176° South 310 357 14,000  Level Boston Center
06:06AM 42.0239 -70.6711 198° South 316 364 16,700 2,340 Climbing Boston Center
06:07AM 41.9308 -70.7128 198° South 328 377 18,700 2,040 Climbing Boston Center
06:08AM 41.8231 -70.7603 198° South 352 405 20,800 1,620 Climbing Boston Center
06:09AM 41.7383 -70.8125 205° Southwest 368 423 22,000 600 Climbing Boston Center
06:10AM 41.6542 -70.8897 214° Southwest 373 429 22,000  Level Boston Center
06:11AM 41.5611 -70.9614 210° Southwest 379 436 22,000  Level Boston Center
06:12AM 41.4858 -71.0906 232° Southwest 379 436 22,000  Level Boston Center
06:13AM 41.4583 -71.2408 256° West 349 402 22,000  Level Boston Center
06:14AM 41.4283 -71.3631 252° West 349 402 22,000  Level Boston Center
06:15AM 41.3836 -71.4883 245° Southwest 360 414 22,000  Level Boston Center
06:16AM 41.3386 -71.6133 244° Southwest 366 421 22,000  Level Boston Center
06:17AM 41.2958 -71.7411 246° West 373 429 22,000  Level Boston Center
06:18AM 41.2422 -71.8547 238° Southwest 373 429 22,000  Level Boston Center
06:19AM 41.1886 -71.9767 240° Southwest 380 437 22,000  Level Boston Center
06:20AM 41.1328 -72.0928 237° Southwest 385 443 22,000 -240 Level Boston Center
06:21AM 41.0892 -72.1894 239° Southwest 385 443 21,600 -1,440 Descending Boston Center
06:22AM 41.0250 -72.3300 239° Southwest 378 435 19,200 -2,100 Descending Boston Center
06:23AM 40.9728 -72.4319 236° Southwest 363 418 17,500 -1,860 Descending Boston Center
06:24AM 40.9228 -72.5361 238° Southwest 357 411 15,500 -1,800 Descending Boston Center
06:25AM 40.8767 -72.6433 240° Southwest 344 396 13,900 -1,800 Descending Boston Center
06:26AM 40.8333 -72.7333 238° Southwest 317 365 12,200 -1,080 Descending New York TRACON
06:27AM 40.8000 -72.8167 242° Southwest 281 323 12,000 -180 Descending New York TRACON
06:28AM 40.7667 -72.9167 246° West 270 311 11,900 -1,080 Descending New York TRACON
06:29AM 40.7500 -73.0000 255° West 264 304 10,000 -2,100 Descending New York TRACON
06:30AM 40.7167 -73.1000 246° West 253 291 7,800 -2,100 Descending New York TRACON
06:31AM 40.7000 -73.1833 255° West 255 293 5,900 -1,920 Descending New York TRACON
06:32AM 40.7000 -73.2833 270° West 252 290 4,000 -900 Descending New York TRACON
06:33AM 40.7500 -73.3667 308° West 267 307 4,000  Level New York TRACON
06:34AM 40.7833 -73.4333 303° West 255 293 4,000 -360 Level New York TRACON
06:35AM 40.8000 -73.5000 288° West 221 254 3,400 -1,020 Descending New York TRACON
06:36AM 40.8167 -73.5667 288° West 212 244 2,000 -780 Descending New York TRACON
06:37AM 40.7833 -73.6333 237° Southwest 191 220 2,000  Level New York TRACON
06:38AM 40.7500 -73.6667 217° Southwest 181 208 2,000 -300 Level New York TRACON
06:39AM 40.7167 -73.7000 217° Southwest 149 171 1,500 -600 Descending New York TRACON
06:40AM 40.6833 -73.7333 217° Southwest 128 147 900 -600 Descending New York TRACON
06:42AM 40.6333 -73.7667 North  Level FlightAware Approximate
06:49AM 40.6398 -73.7789 North  Level Estimated
06:50AM 40.6398 -73.7789 North  Level Estimated